Terminal Aerodrome Forecast
Issued by NWS Lake Charles, LA

Home | Current Version | Previous Version | Text Only | Print | Product List | Glossary On
Versions: 1 2 3 4 5 6 7 8 9 10 11 12 13 14
847
FTUS44 KLCH 042330
TAFLFT
TAF
KLFT 042330Z 0500/0524 02008KT 5SM -RA BKN005 OVC100
     FM050400 02008KT P6SM VCSH OVC007
     FM051500 06010KT 4SM -SHRA BR OVC007
     FM051800 12008KT 2SM TSRA BR OVC007CB=

USA.gov is the U.S. government's official web portal to all federal, state and local government web resources and services.